Time;durP1;ratioP1;P1;durP2;ratioP2;P2;SDS_P1;SDS_P2;PMS_P1;PMS_P2;Temp;Humidity;BMP_temperature;BMP_pressure;BME280_temperature;BME280_humidity;BME280_pressure;Samples;Min_cycle;Max_cycle;Signal;HPM_P1;HPM_P2
2022/02/17 00:02:01;;;;;;;105.75;32.97;;;4.60;99.90;;;;;;5054879;28;20093;-86
2022/02/17 00:04:27;;;;;;;90.75;30.42;;;4.60;99.90;;;;;;5056344;28;20059;-86
2022/02/17 00:06:54;;;;;;;84.60;28.45;;;4.50;99.90;;;;;;5060160;28;20052;-86
2022/02/17 00:09:20;;;;;;;83.80;30.15;;;4.60;99.90;;;;;;5064340;28;20041;-87
2022/02/17 00:11:45;;;;;;;90.10;32.42;;;4.60;99.90;;;;;;5056528;28;20033;-87
2022/02/17 00:14:11;;;;;;;83.18;31.02;;;4.60;99.90;;;;;;5054620;28;20029;-87
2022/02/17 00:16:37;;;;;;;80.22;30.33;;;4.60;99.90;;;;;;5053703;28;20056;-87
2022/02/17 00:19:02;;;;;;;76.22;31.17;;;4.60;99.90;;;;;;5056134;28;20025;-88
2022/02/17 00:21:29;;;;;;;89.05;34.20;;;4.60;99.90;;;;;;5053831;28;20459;-86
2022/02/17 00:23:55;;;;;;;84.68;32.60;;;4.70;99.90;;;;;;5056739;28;20443;-87
2022/02/17 00:26:20;;;;;;;82.53;31.75;;;4.60;99.90;;;;;;5058528;28;20101;-87
2022/02/17 00:28:48;;;;;;;82.03;31.52;;;4.70;99.90;;;;;;5057481;28;20124;-86
2022/02/17 00:31:14;;;;;;;84.55;33.67;;;4.70;99.90;;;;;;5054746;28;20036;-87
2022/02/17 00:33:40;;;;;;;78.18;31.50;;;4.70;99.90;;;;;;5054297;28;20074;-86
2022/02/17 00:36:06;;;;;;;80.72;32.25;;;4.60;99.90;;;;;;5056873;28;20116;-87
2022/02/17 00:38:32;;;;;;;78.80;31.33;;;4.60;99.90;;;;;;5058855;28;20120;-86
2022/02/17 00:40:58;;;;;;;79.40;31.13;;;4.60;99.90;;;;;;5052946;28;20028;-86
2022/02/17 00:43:23;;;;;;;79.95;32.45;;;4.60;99.90;;;;;;5047650;28;20112;-84
2022/02/17 00:45:49;;;;;;;80.47;33.28;;;4.60;99.90;;;;;;5049282;28;20472;-85
2022/02/17 00:48:15;;;;;;;84.68;34.22;;;4.70;99.90;;;;;;5034973;28;20470;-86
2022/02/17 00:50:40;;;;;;;83.55;33.75;;;4.70;99.90;;;;;;5045488;28;20029;-84
2022/02/17 00:53:06;;;;;;;84.35;33.47;;;4.70;99.90;;;;;;5054753;28;20053;-85
2022/02/17 00:55:33;;;;;;;88.55;35.53;;;4.70;99.90;;;;;;5053158;28;20117;-86
2022/02/17 00:57:59;;;;;;;88.00;35.10;;;4.70;99.90;;;;;;5053468;28;20467;-87
2022/02/17 01:00:26;;;;;;;82.25;34.22;;;4.70;99.90;;;;;;5039426;28;20035;-86
2022/02/17 01:02:52;;;;;;;81.68;34.53;;;4.70;99.90;;;;;;5033536;28;20025;-87
2022/02/17 01:05:18;;;;;;;85.22;35.28;;;4.70;99.90;;;;;;5037454;28;20029;-87
2022/02/17 01:07:44;;;;;;;82.97;33.67;;;4.80;99.90;;;;;;5036931;28;20391;-86
2022/02/17 01:10:10;;;;;;;84.00;35.03;;;4.80;99.90;;;;;;5034550;28;20452;-85
2022/02/17 01:12:36;;;;;;;83.78;35.80;;;4.80;99.90;;;;;;5033031;28;20029;-86
2022/02/17 01:15:02;;;;;;;79.80;32.58;;;4.70;99.90;;;;;;5033091;28;20048;-87
2022/02/17 01:17:28;;;;;;;82.85;35.38;;;4.80;99.90;;;;;;5016430;28;20069;-88
2022/02/17 01:19:57;;;;;;;87.60;36.28;;;4.80;99.90;;;;;;5032969;28;20034;-87
2022/02/17 01:22:22;;;;;;;77.88;34.85;;;4.80;99.90;;;;;;5034482;28;20033;-85
2022/02/17 01:24:49;;;;;;;84.47;35.35;;;4.80;99.90;;;;;;5035096;28;20036;-85
2022/02/17 01:27:15;;;;;;;86.25;36.58;;;4.80;99.90;;;;;;5035235;28;20040;-85
2022/02/17 01:29:41;;;;;;;84.68;37.40;;;4.80;99.90;;;;;;5037486;28;20026;-85
2022/02/17 01:32:08;;;;;;;79.65;35.28;;;4.90;99.90;;;;;;5041243;28;20029;-86
2022/02/17 01:34:34;;;;;;;78.88;36.42;;;4.80;99.90;;;;;;5040888;28;20026;-86
2022/02/17 01:37:01;;;;;;;83.22;37.70;;;4.80;99.90;;;;;;5036988;28;20128;-86
2022/02/17 01:39:26;;;;;;;71.38;32.60;;;4.80;99.90;;;;;;5033124;28;20029;-87
2022/02/17 01:41:52;;;;;;;73.63;33.47;;;4.80;99.90;;;;;;5032775;28;20433;-86
2022/02/17 01:44:18;;;;;;;80.45;35.53;;;4.80;99.90;;;;;;5032713;28;20022;-87
2022/02/17 01:46:44;;;;;;;75.60;32.92;;;4.80;99.90;;;;;;5032640;28;20025;-86
2022/02/17 01:49:11;;;;;;;68.47;33.05;;;4.80;99.90;;;;;;5032784;28;20447;-86
2022/02/17 01:51:36;;;;;;;78.03;35.90;;;4.90;99.90;;;;;;5033716;28;20080;-87
2022/02/17 01:54:04;;;;;;;78.43;36.63;;;4.90;99.90;;;;;;5032575;28;20029;-85
2022/02/17 01:56:34;;;;;;;72.05;34.35;;;4.90;99.90;;;;;;5032933;28;20052;-86
2022/02/17 01:59:04;;;;;;;83.73;38.10;;;4.90;99.90;;;;;;5034295;28;20039;-86
2022/02/17 02:01:32;;;;;;;68.10;33.30;;;4.90;99.90;;;;;;5034380;28;20472;-87
2022/02/17 02:03:58;;;;;;;73.68;34.10;;;4.90;99.90;;;;;;5043411;28;20088;-85
2022/02/17 02:06:24;;;;;;;76.88;35.33;;;4.90;99.90;;;;;;5032884;28;20064;-85
2022/02/17 02:08:50;;;;;;;73.65;34.63;;;4.90;99.90;;;;;;5033140;28;20056;-86
2022/02/17 02:11:15;;;;;;;79.65;36.78;;;4.90;99.90;;;;;;5032095;28;20048;-86
2022/02/17 02:13:41;;;;;;;74.32;34.90;;;4.90;99.90;;;;;;5032203;28;20029;-85
2022/02/17 02:16:07;;;;;;;71.38;34.85;;;4.90;99.90;;;;;;5032292;28;20080;-84
2022/02/17 02:18:33;;;;;;;81.72;39.13;;;4.90;99.90;;;;;;5038437;28;20014;-84
2022/02/17 02:21:02;;;;;;;77.45;37.33;;;4.90;99.90;;;;;;5043404;28;20112;-85
2022/02/17 02:23:27;;;;;;;79.07;36.88;;;4.90;99.90;;;;;;5036711;28;20024;-86
2022/02/17 02:25:53;;;;;;;80.43;38.78;;;4.90;99.90;;;;;;5034044;28;20029;-85
2022/02/17 02:28:24;;;;;;;83.88;38.40;;;5.00;99.90;;;;;;5033598;28;20029;-86
2022/02/17 02:30:51;;;;;;;76.50;35.13;;;5.00;99.90;;;;;;5033960;28;20025;-87
2022/02/17 02:33:18;;;;;;;76.65;35.67;;;5.00;99.90;;;;;;5019911;28;20056;-87
2022/02/17 02:35:44;;;;;;;76.78;35.03;;;5.00;99.90;;;;;;5032325;28;20460;-87
2022/02/17 02:38:11;;;;;;;72.65;34.42;;;5.00;99.90;;;;;;5032333;28;20056;-86
2022/02/17 02:40:37;;;;;;;86.88;37.80;;;5.00;99.90;;;;;;5033122;28;20026;-85
2022/02/17 02:43:04;;;;;;;82.65;36.55;;;5.00;99.90;;;;;;5033609;28;20494;-85
2022/02/17 02:45:31;;;;;;;74.28;33.65;;;5.00;99.90;;;;;;5032432;28;20033;-87
2022/02/17 02:47:57;;;;;;;72.63;34.38;;;5.00;99.90;;;;;;5033834;28;20036;-86
2022/02/17 02:50:23;;;;;;;78.10;34.90;;;5.00;99.90;;;;;;5032401;28;20025;-85
2022/02/17 02:52:49;;;;;;;71.72;32.92;;;5.00;99.90;;;;;;5031639;28;20025;-86
2022/02/17 02:55:15;;;;;;;79.22;34.67;;;5.00;99.90;;;;;;5032046;28;20120;-86
2022/02/17 02:57:42;;;;;;;78.28;35.40;;;5.10;99.90;;;;;;5032665;28;20574;-87
2022/02/17 03:00:08;;;;;;;74.70;33.40;;;5.10;99.90;;;;;;5036697;28;20105;-85
2022/02/17 03:02:35;;;;;;;77.00;33.97;;;5.10;99.90;;;;;;5037258;28;20033;-87
2022/02/17 03:05:01;;;;;;;80.68;35.50;;;5.10;99.90;;;;;;5037258;28;20079;-86
2022/02/17 03:07:26;;;;;;;69.97;31.88;;;5.10;99.90;;;;;;5052324;28;20034;-86
2022/02/17 03:09:52;;;;;;;70.95;32.10;;;5.10;99.90;;;;;;5047698;28;20052;-86
2022/02/17 03:12:19;;;;;;;65.50;30.90;;;5.10;99.90;;;;;;5035587;28;20036;-85
2022/02/17 03:14:45;;;;;;;69.63;32.90;;;5.10;99.90;;;;;;5037130;28;20030;-88
2022/02/17 03:17:10;;;;;;;70.00;32.50;;;5.20;99.90;;;;;;5036148;28;20099;-87
2022/02/17 03:19:36;;;;;;;74.78;34.60;;;5.10;99.90;;;;;;5040739;28;20029;-87
2022/02/17 03:22:02;;;;;;;77.82;36.63;;;5.20;99.90;;;;;;5037387;28;20479;-85
2022/02/17 03:24:28;;;;;;;67.63;32.50;;;5.20;99.90;;;;;;5037112;28;20413;-88
2022/02/17 03:26:54;;;;;;;65.72;31.85;;;5.10;99.90;;;;;;5035467;28;20537;-88
2022/02/17 03:29:20;;;;;;;70.00;31.10;;;5.10;99.90;;;;;;5041636;28;20033;-88
2022/02/17 03:31:45;;;;;;;70.18;33.10;;;5.20;99.90;;;;;;5041241;28;20052;-88
2022/02/17 03:34:13;;;;;;;70.13;33.05;;;5.20;99.90;;;;;;5037259;28;20037;-88
2022/02/17 03:36:38;;;;;;;69.65;33.80;;;5.20;99.90;;;;;;5035230;28;20036;-90
2022/02/17 03:39:04;;;;;;;70.60;32.63;;;5.20;99.90;;;;;;5035152;28;20030;-90
2022/02/17 03:41:30;;;;;;;70.53;34.22;;;5.20;99.90;;;;;;5035195;28;20049;-88
2022/02/17 03:43:57;;;;;;;69.95;34.28;;;5.20;99.90;;;;;;5036103;28;20033;-88
2022/02/17 03:46:23;;;;;;;69.25;34.38;;;5.20;99.90;;;;;;5035624;28;20467;-89
2022/02/17 03:48:49;;;;;;;70.43;32.78;;;5.20;99.90;;;;;;5036450;28;20025;-89
2022/02/17 03:51:14;;;;;;;64.07;31.02;;;5.20;99.90;;;;;;5035472;28;20026;-88
2022/02/17 03:53:40;;;;;;;71.32;32.15;;;5.20;99.90;;;;;;5035127;28;20369;-89
2022/02/17 03:56:06;;;;;;;66.38;31.88;;;5.20;99.90;;;;;;5035169;28;20103;-88
2022/02/17 04:01:15;;;;;;;63.63;31.65;;;5.20;99.90;;;;;;5041842;28;20083;-87
2022/02/17 04:03:41;;;;;;;67.95;34.58;;;5.20;99.90;;;;;;5036985;28;20029;-87
2022/02/17 04:06:07;;;;;;;63.38;32.17;;;5.20;99.90;;;;;;5036715;28;20037;-89
2022/02/17 04:08:32;;;;;;;66.18;31.60;;;5.20;99.90;;;;;;5037272;28;20040;-87
2022/02/17 04:11:02;;;;;;;64.28;32.05;;;5.20;99.90;;;;;;5034652;28;20037;-88
2022/02/17 04:13:28;;;;;;;67.18;32.00;;;5.20;99.90;;;;;;5036299;28;20048;-87
2022/02/17 04:15:54;;;;;;;64.95;32.03;;;5.20;99.90;;;;;;5036456;28;20041;-88
2022/02/17 04:18:20;;;;;;;71.00;32.38;;;5.20;99.90;;;;;;5034585;28;20526;-88
2022/02/17 04:20:45;;;;;;;68.00;33.60;;;5.20;99.90;;;;;;5034544;28;20025;-89
2022/02/17 04:23:11;;;;;;;69.45;33.72;;;5.20;99.90;;;;;;5035177;28;20215;-88
2022/02/17 04:25:37;;;;;;;69.05;33.25;;;5.20;99.90;;;;;;5035216;28;20037;-88
2022/02/17 04:28:03;;;;;;;73.60;33.47;;;5.20;99.90;;;;;;5039494;28;20040;-87
2022/02/17 04:30:28;;;;;;;65.95;31.80;;;5.20;99.90;;;;;;5037589;28;20144;-88
2022/02/17 04:32:54;;;;;;;68.85;33.38;;;5.20;99.90;;;;;;5042919;28;20032;-89
2022/02/17 04:35:21;;;;;;;72.40;33.60;;;5.20;99.90;;;;;;5056304;28;20036;-89
2022/02/17 04:37:47;;;;;;;72.13;36.83;;;5.20;99.90;;;;;;5044056;28;20049;-89
2022/02/17 04:40:13;;;;;;;68.90;34.47;;;5.10;99.90;;;;;;5047858;28;20475;-91
2022/02/17 04:42:39;;;;;;;76.80;34.72;;;5.20;99.90;;;;;;5034568;28;20044;-86
2022/02/17 04:45:07;;;;;;;77.63;35.65;;;5.20;99.90;;;;;;5036333;28;20030;-86
2022/02/17 04:47:33;;;;;;;76.32;35.80;;;5.20;99.90;;;;;;5034354;28;20034;-87
2022/02/17 04:49:59;;;;;;;77.43;35.22;;;5.10;99.90;;;;;;5035650;28;20025;-88
2022/02/17 04:52:26;;;;;;;74.63;35.90;;;5.10;99.90;;;;;;5054209;28;20458;-89
2022/02/17 04:54:52;;;;;;;86.18;39.00;;;5.10;99.90;;;;;;5060043;28;20037;-88
2022/02/17 04:57:18;;;;;;;97.18;41.85;;;5.10;99.90;;;;;;5059949;28;20099;-86
2022/02/17 04:59:44;;;;;;;86.78;41.03;;;5.20;99.90;;;;;;5055132;28;20056;-89
2022/02/17 05:02:10;;;;;;;78.80;37.13;;;5.20;99.90;;;;;;5053146;28;20033;-88
2022/02/17 05:04:38;;;;;;;77.95;35.25;;;5.20;99.90;;;;;;5049158;28;20199;-88
2022/02/17 05:07:04;;;;;;;75.10;35.55;;;5.10;99.90;;;;;;5050052;28;20029;-90
2022/02/17 05:09:29;;;;;;;86.03;38.92;;;5.20;99.90;;;;;;5035054;28;20028;-89
2022/02/17 05:11:55;;;;;;;90.03;38.88;;;5.20;99.90;;;;;;5035005;28;20372;-90
2022/02/17 05:14:21;;;;;;;82.20;36.88;;;5.20;99.90;;;;;;5038013;28;20032;-89
2022/02/17 05:16:46;;;;;;;88.88;39.17;;;5.20;99.90;;;;;;5037481;28;20064;-89
2022/02/17 05:19:12;;;;;;;77.63;36.58;;;5.20;99.90;;;;;;5034172;28;20029;-89
2022/02/17 05:21:38;;;;;;;78.25;36.10;;;5.20;99.90;;;;;;5034876;28;20109;-90
2022/02/17 05:24:05;;;;;;;81.10;38.75;;;5.20;99.90;;;;;;5033650;28;20083;-90
2022/02/17 05:26:31;;;;;;;81.53;36.83;;;5.20;99.90;;;;;;5040563;28;20352;-88
2022/02/17 05:28:56;;;;;;;82.20;37.67;;;5.30;99.90;;;;;;5034006;28;20026;-90
2022/02/17 05:31:22;;;;;;;80.10;37.90;;;5.20;99.90;;;;;;5033755;28;20128;-88
2022/02/17 05:33:48;;;;;;;84.30;37.88;;;5.20;99.90;;;;;;5033810;28;20388;-90
2022/02/17 05:36:13;;;;;;;77.00;36.97;;;5.20;99.90;;;;;;5035019;28;20094;-90
2022/02/17 05:38:39;;;;;;;76.82;36.35;;;5.20;99.90;;;;;;5041136;28;20103;-91
2022/02/17 05:41:05;;;;;;;85.90;37.30;;;5.20;99.90;;;;;;5047432;28;20026;-92
2022/02/17 05:43:31;;;;;;;71.57;34.65;;;5.20;99.90;;;;;;5053358;28;20040;-90
2022/02/17 05:45:56;;;;;;;78.80;38.80;;;5.20;99.90;;;;;;5047281;28;20026;-92
2022/02/17 05:48:23;;;;;;;76.78;36.65;;;5.20;99.90;;;;;;5033532;28;20082;-90
2022/02/17 05:50:48;;;;;;;81.03;35.75;;;5.20;99.90;;;;;;5036866;28;20029;-91
2022/02/17 05:53:14;;;;;;;81.47;36.60;;;5.30;99.90;;;;;;5037569;28;20025;-92
2022/02/17 05:55:40;;;;;;;79.78;35.50;;;5.30;99.90;;;;;;5042775;28;20025;-92
2022/02/17 05:58:06;;;;;;;84.00;37.97;;;5.20;99.90;;;;;;5037462;28;20025;-92
2022/02/17 06:00:32;;;;;;;82.22;37.60;;;5.30;99.90;;;;;;5033713;28;20033;-93
2022/02/17 06:02:57;;;;;;;81.38;36.33;;;5.30;99.90;;;;;;5027895;28;20034;-94
2022/02/17 06:05:23;;;;;;;75.85;35.58;;;5.30;99.90;;;;;;5030511;28;20104;-93
2022/02/17 06:07:49;;;;;;;74.25;35.10;;;5.30;99.90;;;;;;5028889;28;20049;-93
2022/02/17 06:10:15;;;;;;;80.90;36.33;;;5.30;99.90;;;;;;5032459;28;20101;-93
2022/02/17 06:12:45;;;;;;;77.90;37.30;;;5.30;99.90;;;;;;5028547;28;20045;-92
2022/02/17 06:15:12;;;;;;;78.60;35.10;;;5.30;99.90;;;;;;5023494;28;20625;-94
2022/02/17 06:17:38;;;;;;;88.78;38.28;;;5.30;99.90;;;;;;5025187;28;20053;-92
2022/02/17 06:20:06;;;;;;;80.13;36.83;;;5.40;99.90;;;;;;5023549;28;20033;-89
2022/02/17 06:22:32;;;;;;;76.97;36.60;;;5.40;99.90;;;;;;5024504;28;20222;-91
2022/02/17 06:24:58;;;;;;;84.72;38.72;;;5.40;99.90;;;;;;5024958;28;20572;-87
2022/02/17 06:27:24;;;;;;;85.47;40.40;;;5.40;99.90;;;;;;5041224;28;20026;-87
2022/02/17 06:29:49;;;;;;;88.43;39.35;;;5.40;99.90;;;;;;5012398;28;20573;-90
2022/02/17 06:32:15;;;;;;;85.68;39.75;;;5.30;99.90;;;;;;5008990;28;20025;-90
2022/02/17 06:34:41;;;;;;;81.53;37.50;;;5.40;99.90;;;;;;5009328;28;20384;-87
2022/02/17 06:37:06;;;;;;;86.10;38.50;;;5.40;99.90;;;;;;5009421;28;20038;-87
2022/02/17 06:39:32;;;;;;;88.20;39.90;;;5.40;99.90;;;;;;5014298;28;20392;-87
2022/02/17 06:41:58;;;;;;;81.90;39.00;;;5.40;99.90;;;;;;5042833;28;20021;-86
2022/02/17 06:44:23;;;;;;;75.38;37.33;;;5.40;99.90;;;;;;5039355;28;20051;-87
2022/02/17 06:46:49;;;;;;;78.75;36.97;;;5.40;99.90;;;;;;5037062;28;20142;-88
2022/02/17 06:49:15;;;;;;;76.25;37.03;;;5.40;99.90;;;;;;5018433;28;20045;-88
2022/02/17 06:51:41;;;;;;;87.95;38.53;;;5.40;99.90;;;;;;5024130;28;20108;-90
2022/02/17 06:54:09;;;;;;;78.20;37.58;;;5.50;99.90;;;;;;5034005;28;20199;-82
2022/02/17 06:56:35;;;;;;;75.07;36.17;;;5.50;99.90;;;;;;5031356;28;20045;-84
2022/02/17 06:59:01;;;;;;;87.15;39.42;;;5.50;99.90;;;;;;5030546;28;20093;-85
2022/02/17 07:01:26;;;;;;;97.03;44.10;;;5.50;99.90;;;;;;5029857;28;20025;-86
2022/02/17 07:03:55;;;;;;;91.80;43.20;;;5.50;99.90;;;;;;5039355;28;20033;-89
2022/02/17 07:06:23;;;;;;;90.40;40.63;;;5.50;99.90;;;;;;5053991;28;20021;-89
2022/02/17 07:08:50;;;;;;;85.97;40.13;;;5.50;99.90;;;;;;5042737;28;20581;-90
2022/02/17 07:11:16;;;;;;;80.55;37.80;;;5.60;99.90;;;;;;5019724;28;20057;-85
2022/02/17 07:13:41;;;;;;;84.35;36.97;;;5.60;99.90;;;;;;5030559;28;20526;-89
2022/02/17 07:16:07;;;;;;;84.82;41.10;;;5.60;99.90;;;;;;5010507;28;20073;-87
2022/02/17 07:18:33;;;;;;;86.43;40.15;;;5.60;99.90;;;;;;5019101;28;20464;-84
2022/02/17 07:20:59;;;;;;;86.90;39.10;;;5.60;99.90;;;;;;5028181;28;20040;-88
2022/02/17 07:23:26;;;;;;;79.13;36.50;;;5.70;99.90;;;;;;5037267;28;20017;-90
2022/02/17 07:25:52;;;;;;;81.35;36.80;;;5.70;99.90;;;;;;5029389;28;20032;-83
2022/02/17 07:28:22;;;;;;;82.97;38.90;;;5.70;99.90;;;;;;5016460;28;20033;-85
2022/02/17 07:30:49;;;;;;;78.15;37.13;;;5.80;99.90;;;;;;5030340;28;20361;-90
2022/02/17 07:33:16;;;;;;;77.32;36.58;;;5.80;99.90;;;;;;5030519;28;20079;-87
2022/02/17 07:35:44;;;;;;;72.55;34.13;;;5.80;99.90;;;;;;5023222;28;20407;-88
2022/02/17 07:38:12;;;;;;;75.53;35.63;;;5.80;99.90;;;;;;5032386;28;20065;-88
2022/02/17 07:40:40;;;;;;;81.75;36.47;;;5.90;99.90;;;;;;5030079;28;20056;-89
2022/02/17 07:43:18;;;;;;;82.93;38.72;;;5.90;99.90;;;;;;5032118;28;20029;-89
2022/02/17 07:45:44;;;;;;;83.07;39.83;;;5.90;99.90;;;;;;5012428;28;20030;-85
2022/02/17 07:48:10;;;;;;;79.38;38.63;;;5.90;99.90;;;;;;5010851;28;20064;-87
2022/02/17 07:50:36;;;;;;;77.90;36.97;;;6.00;99.90;;;;;;5023141;28;20036;-88
2022/02/17 07:53:02;;;;;;;75.80;36.22;;;6.00;99.90;;;;;;5032209;28;20029;-84
2022/02/17 07:55:28;;;;;;;70.18;34.70;;;6.00;99.90;;;;;;5044181;28;20025;-86
2022/02/17 07:58:00;;;;;;;73.72;35.10;;;6.10;99.90;;;;;;5048163;28;20044;-86
2022/02/17 08:00:25;;;;;;;81.13;36.55;;;6.10;99.90;;;;;;5049409;28;20410;-85
2022/02/17 08:02:51;;;;;;;72.03;34.58;;;6.10;99.90;;;;;;5035406;28;20029;-88
2022/02/17 08:05:17;;;;;;;73.57;35.15;;;6.10;99.90;;;;;;5030269;28;20018;-87
2022/02/17 08:07:42;;;;;;;77.63;38.42;;;6.00;99.90;;;;;;5028758;28;20030;-84
2022/02/17 08:10:24;;;;;;;76.68;36.28;;;6.10;99.90;;;;;;5031434;28;20708;-88
2022/02/17 08:12:52;;;;;;;82.32;36.95;;;6.10;99.90;;;;;;5030010;28;20116;-88
2022/02/17 08:15:18;;;;;;;76.15;35.00;;;6.10;99.90;;;;;;5022038;28;20034;-86
2022/02/17 08:17:44;;;;;;;75.05;35.17;;;6.10;99.90;;;;;;5017638;28;20550;-91
2022/02/17 08:20:11;;;;;;;70.47;33.67;;;6.10;99.90;;;;;;5010363;28;20064;-86
2022/02/17 08:22:37;;;;;;;68.30;34.30;;;6.10;99.90;;;;;;5010243;28;20025;-90
2022/02/17 08:25:03;;;;;;;71.60;34.88;;;6.10;99.90;;;;;;5017674;28;20036;-87
2022/02/17 08:27:31;;;;;;;69.15;33.40;;;6.20;99.90;;;;;;5022778;28;20021;-89
2022/02/17 08:29:56;;;;;;;65.28;32.70;;;6.10;99.90;;;;;;5030559;28;20030;-87
2022/02/17 08:32:22;;;;;;;79.07;36.92;;;6.10;99.90;;;;;;5028675;28;20376;-85
2022/02/17 08:34:48;;;;;;;75.53;36.45;;;6.20;99.90;;;;;;5025429;28;20048;-84
2022/02/17 08:37:14;;;;;;;71.47;36.00;;;6.30;99.90;;;;;;5022361;28;20076;-86
2022/02/17 08:39:39;;;;;;;75.68;37.60;;;6.30;99.90;;;;;;5025398;28;20025;-88
2022/02/17 08:42:05;;;;;;;75.70;37.42;;;6.40;99.90;;;;;;5024207;28;20029;-86
2022/02/17 08:44:31;;;;;;;68.65;34.70;;;6.40;99.90;;;;;;5024430;28;20475;-85
2022/02/17 08:46:56;;;;;;;65.13;33.97;;;6.40;99.90;;;;;;5019129;28;20467;-84
2022/02/17 08:49:22;;;;;;;68.07;33.95;;;6.40;99.90;;;;;;5026711;28;20076;-86
2022/02/17 08:51:48;;;;;;;60.88;33.10;;;6.40;99.90;;;;;;5018130;28;20021;-85
2022/02/17 08:54:16;;;;;;;62.22;33.15;;;6.40;99.90;;;;;;5020940;28;20364;-83
2022/02/17 08:56:42;;;;;;;66.18;34.83;;;6.40;99.90;;;;;;5022181;28;20037;-85
2022/02/17 08:59:11;;;;;;;62.33;31.63;;;6.40;99.90;;;;;;5019143;28;20045;-86
2022/02/17 09:01:38;;;;;;;57.88;31.88;;;6.40;99.90;;;;;;5024197;28;20022;-83
2022/02/17 09:04:06;;;;;;;61.22;32.70;;;6.50;99.90;;;;;;5028107;28;20048;-87
2022/02/17 09:06:32;;;;;;;65.60;32.47;;;6.50;99.90;;;;;;5033127;28;20125;-87
2022/02/17 09:08:58;;;;;;;66.35;31.42;;;6.50;99.90;;;;;;5015573;28;20060;-86
2022/02/17 09:11:23;;;;;;;55.60;30.80;;;6.40;99.90;;;;;;5027541;28;20029;-85
2022/02/17 09:13:49;;;;;;;58.95;29.40;;;6.50;99.90;;;;;;5017989;28;20117;-87
2022/02/17 09:16:15;;;;;;;57.75;29.35;;;6.40;99.90;;;;;;5015167;28;20054;-84
2022/02/17 09:18:40;;;;;;;59.00;29.27;;;6.50;99.90;;;;;;5019049;28;20052;-87
2022/02/17 09:21:06;;;;;;;64.55;30.63;;;6.50;99.90;;;;;;5025853;28;20034;-86
2022/02/17 09:23:33;;;;;;;59.25;30.17;;;6.50;99.90;;;;;;5013795;28;20029;-85
2022/02/17 09:25:59;;;;;;;64.85;32.92;;;6.50;99.90;;;;;;5014354;28;20026;-85
2022/02/17 09:28:25;;;;;;;59.63;30.88;;;6.60;99.90;;;;;;5018019;28;20025;-87
2022/02/17 09:30:51;;;;;;;55.70;30.55;;;6.60;99.90;;;;;;5021736;28;20051;-87
2022/02/17 09:33:16;;;;;;;53.67;28.10;;;6.60;99.90;;;;;;5023104;28;20757;-87
2022/02/17 09:35:42;;;;;;;48.13;26.25;;;6.60;99.90;;;;;;5023755;28;20033;-86
2022/02/17 09:38:13;;;;;;;53.45;29.15;;;6.60;99.90;;;;;;5025530;28;20037;-86
2022/02/17 09:40:42;;;;;;;50.17;28.48;;;6.60;99.90;;;;;;5024877;28;20069;-84
2022/02/17 09:43:10;;;;;;;62.80;29.48;;;6.70;99.90;;;;;;5016523;28;20083;-87
2022/02/17 09:45:42;;;;;;;54.08;29.80;;;6.70;99.90;;;;;;5016725;28;20037;-85
2022/02/17 09:48:08;;;;;;;54.15;28.75;;;6.70;99.90;;;;;;5019752;28;20037;-85
2022/02/17 09:50:35;;;;;;;56.35;29.48;;;6.70;99.90;;;;;;5012114;28;20080;-86
2022/02/17 09:53:03;;;;;;;54.50;29.40;;;6.70;99.90;;;;;;5024269;28;20327;-86
2022/02/17 09:55:29;;;;;;;56.97;27.75;;;6.70;99.90;;;;;;5006964;28;20022;-85
2022/02/17 09:58:04;;;;;;;50.70;27.42;;;6.70;99.90;;;;;;5010186;28;20053;-86
2022/02/17 10:00:30;;;;;;;53.05;28.08;;;6.80;99.90;;;;;;5009266;28;20030;-87
2022/02/17 10:03:32;;;;;;;49.58;27.90;;;6.80;99.90;;;;;;5024429;28;20105;-87
2022/02/17 10:06:17;;;;;;;55.10;28.83;;;6.80;99.90;;;;;;5011451;28;20017;-87
2022/02/17 10:08:43;;;;;;;50.72;28.70;;;6.80;99.90;;;;;;5031944;28;20114;-87
2022/02/17 10:14:31;;;;;;;52.35;28.42;;;6.90;99.90;;;;;;5034019;28;20052;-87
2022/02/17 10:16:58;;;;;;;49.78;26.80;;;6.90;99.90;;;;;;5030235;28;20105;-85
2022/02/17 10:19:27;;;;;;;49.60;27.10;;;6.90;99.90;;;;;;5017305;28;20448;-84
2022/02/17 10:22:08;;;;;;;50.63;26.00;;;7.00;99.90;;;;;;5021187;28;20022;-86
2022/02/17 10:24:47;;;;;;;51.45;25.58;;;7.00;99.90;;;;;;5022317;28;20462;-86
2022/02/17 10:27:14;;;;;;;50.15;25.98;;;6.90;99.90;;;;;;5028465;28;20018;-86
2022/02/17 10:30:08;;;;;;;49.25;25.05;;;6.90;99.90;;;;;;5040577;28;20021;-84
2022/02/17 10:32:35;;;;;;;47.63;24.88;;;7.00;99.90;;;;;;5034910;28;20025;-83
2022/02/17 10:35:15;;;;;;;45.85;24.95;;;7.00;99.90;;;;;;5036840;28;20033;-88
2022/02/17 10:37:55;;;;;;;44.60;24.02;;;7.10;99.90;;;;;;5041511;28;20034;-86
2022/02/17 10:40:28;;;;;;;45.47;24.33;;;7.00;99.90;;;;;;5040329;28;20124;-90
2022/02/17 10:43:12;;;;;;;45.17;25.67;;;7.10;99.90;;;;;;5050719;28;20029;-87
2022/02/17 10:45:40;;;;;;;46.60;24.73;;;7.10;99.90;;;;;;5011294;28;20025;-91
2022/02/17 10:48:23;;;;;;;46.92;25.25;;;7.20;99.90;;;;;;5031286;28;20021;-89
2022/02/17 10:51:07;;;;;;;46.90;25.35;;;7.30;99.90;;;;;;5050584;28;20064;-90
2022/02/17 10:53:40;;;;;;;44.35;24.35;;;7.40;99.90;;;;;;5010959;28;20472;-88
2022/02/17 10:56:09;;;;;;;42.88;25.48;;;7.40;99.90;;;;;;5036556;28;20024;-87
2022/02/17 10:58:43;;;;;;;39.50;23.00;;;7.50;99.90;;;;;;5036091;28;20022;-86
2022/02/17 11:01:10;;;;;;;39.50;22.88;;;7.60;99.90;;;;;;5047000;28;20064;-87
2022/02/17 11:03:38;;;;;;;44.30;23.95;;;7.60;99.90;;;;;;5029682;28;20045;-87
2022/02/17 11:06:04;;;;;;;41.75;24.45;;;7.70;99.90;;;;;;5019619;28;20017;-88
2022/02/17 11:08:33;;;;;;;37.80;22.23;;;7.80;99.90;;;;;;5018822;28;20018;-85
2022/02/17 11:10:59;;;;;;;38.45;21.92;;;7.90;99.90;;;;;;5020756;28;20030;-89
2022/02/17 11:13:26;;;;;;;39.67;21.80;;;7.90;99.90;;;;;;5045639;28;20017;-89
2022/02/17 11:15:56;;;;;;;38.20;22.20;;;7.90;99.90;;;;;;5028638;28;20064;-88
2022/02/17 11:18:23;;;;;;;36.10;21.05;;;8.00;99.90;;;;;;5020225;28;20491;-90
2022/02/17 11:21:19;;;;;;;38.25;22.48;;;8.10;99.90;;;;;;5021544;28;20325;-88
2022/02/17 11:23:45;;;;;;;46.00;23.00;;;8.50;99.90;;;;;;5021185;28;20026;-87
2022/02/17 11:26:24;;;;;;;37.38;20.50;;;8.90;97.30;;;;;;5026923;28;20032;-87
2022/02/17 11:28:50;;;;;;;35.80;21.88;;;9.10;97.40;;;;;;5024569;28;20033;-88
2022/02/17 11:31:16;;;;;;;38.22;21.52;;;9.50;95.50;;;;;;5032055;28;20355;-89
2022/02/17 11:33:53;;;;;;;33.42;21.30;;;9.70;92.00;;;;;;5022244;28;20176;-88
2022/02/17 11:36:21;;;;;;;35.15;21.73;;;9.70;92.80;;;;;;5027634;28;20464;-88
2022/02/17 11:38:54;;;;;;;39.30;21.73;;;9.70;92.10;;;;;;5022998;28;20068;-87
2022/02/17 11:41:23;;;;;;;37.45;22.38;;;9.50;92.20;;;;;;5023548;28;20017;-90
2022/02/17 11:43:53;;;;;;;39.10;21.55;;;9.40;93.20;;;;;;5024857;28;20033;-89
2022/02/17 11:46:40;;;;;;;34.95;20.55;;;9.40;94.50;;;;;;5031345;28;20014;-88
2022/02/17 11:49:12;;;;;;;35.72;20.08;;;9.50;94.00;;;;;;5018913;28;20014;-84
2022/02/17 11:51:38;;;;;;;36.50;20.27;;;9.70;93.60;;;;;;5021432;28;20028;-84
2022/02/17 11:54:16;;;;;;;32.88;19.48;;;9.80;93.60;;;;;;5022687;28;20075;-85
2022/02/17 11:56:50;;;;;;;29.90;18.85;;;10.00;93.90;;;;;;5024804;28;20057;-86
2022/02/17 11:59:46;;;;;;;30.10;18.23;;;10.30;93.10;;;;;;5025953;28;20030;-85
2022/02/17 12:02:41;;;;;;;32.22;19.27;;;10.60;94.40;;;;;;5002978;28;20741;-84
2022/02/17 12:05:15;;;;;;;31.02;17.77;;;11.30;90.20;;;;;;5002241;28;20019;-86
2022/02/17 12:07:44;;;;;;;28.08;17.98;;;11.90;83.20;;;;;;4998982;28;20029;-85
2022/02/17 12:10:32;;;;;;;29.92;18.48;;;12.00;84.60;;;;;;5003873;28;20018;-86
2022/02/17 12:13:05;;;;;;;31.98;19.48;;;12.30;81.70;;;;;;5001742;28;20101;-84
2022/02/17 12:15:31;;;;;;;29.13;17.65;;;12.60;80.50;;;;;;5000377;28;20041;-83
2022/02/17 12:17:58;;;;;;;27.27;17.30;;;12.80;78.80;;;;;;5002578;28;20400;-84
2022/02/17 12:20:28;;;;;;;23.38;15.90;;;13.10;75.70;;;;;;5001557;28;20030;-86
2022/02/17 12:23:02;;;;;;;25.97;16.97;;;13.30;75.90;;;;;;5000046;28;20034;-85
2022/02/17 12:25:33;;;;;;;27.77;15.60;;;13.50;76.80;;;;;;4999731;28;20472;-85
2022/02/17 12:28:06;;;;;;;24.70;15.23;;;14.00;74.80;;;;;;5004160;28;20037;-85
2022/02/17 12:30:42;;;;;;;21.77;15.20;;;14.30;74.00;;;;;;5006367;28;20460;-84
2022/02/17 12:33:23;;;;;;;21.60;14.00;;;14.90;70.50;;;;;;5001843;28;20026;-84
2022/02/17 12:35:57;;;;;;;22.52;15.23;;;15.10;69.80;;;;;;4999553;28;20022;-83
2022/02/17 12:38:42;;;;;;;50.63;35.10;;;15.20;69.90;;;;;;5034197;28;20045;-78
2022/02/17 12:44:39;;;;;;;20.88;14.43;;;15.10;69.50;;;;;;5014776;28;20384;-78
2022/02/17 12:47:13;;;;;;;21.92;14.32;;;14.80;69.40;;;;;;5012755;28;20034;-79
2022/02/17 12:49:40;;;;;;;23.30;13.77;;;14.50;70.20;;;;;;5027661;28;20136;-79